sensor_id;sensor_type;location;lat;lon;timestamp;P1;durP1;ratioP1;P2;durP2;ratioP2
76964;SDS011;65903;51.452;7.198;2024-03-25T00:00:09;11.50;;;3.88;;
76964;SDS011;65903;51.452;7.198;2024-03-25T00:01:11;11.55;;;3.72;;
76964;SDS011;65903;51.452;7.198;2024-03-25T00:02:12;21.40;;;3.90;;
76964;SDS011;65903;51.452;7.198;2024-03-25T00:03:12;8.23;;;2.60;;
76964;SDS011;65903;51.452;7.198;2024-03-25T00:04:12;11.27;;;3.92;;
76964;SDS011;65903;51.452;7.198;2024-03-25T00:05:12;16.13;;;4.50;;
76964;SDS011;65903;51.452;7.198;2024-03-25T00:07:16;6.85;;;2.78;;
76964;SDS011;65903;51.452;7.198;2024-03-25T00:08:17;12.32;;;4.28;;
76964;SDS011;65903;51.452;7.198;2024-03-25T00:09:18;13.40;;;3.67;;
76964;SDS011;65903;51.452;7.198;2024-03-25T00:10:18;13.45;;;3.78;;
76964;SDS011;65903;51.452;7.198;2024-03-25T00:11:20;14.02;;;4.38;;
76964;SDS011;65903;51.452;7.198;2024-03-25T00:12:21;10.20;;;3.92;;
76964;SDS011;65903;51.452;7.198;2024-03-25T00:13:21;12.40;;;3.92;;
76964;SDS011;65903;51.452;7.198;2024-03-25T00:14:22;18.13;;;5.03;;
76964;SDS011;65903;51.452;7.198;2024-03-25T00:15:22;11.65;;;4.03;;
76964;SDS011;65903;51.452;7.198;2024-03-25T00:16:24;17.10;;;4.72;;
76964;SDS011;65903;51.452;7.198;2024-03-25T00:17:24;14.65;;;4.72;;
76964;SDS011;65903;51.452;7.198;2024-03-25T00:18:25;13.43;;;3.65;;
76964;SDS011;65903;51.452;7.198;2024-03-25T00:19:25;16.73;;;4.45;;
76964;SDS011;65903;51.452;7.198;2024-03-25T00:20:27;13.27;;;3.97;;
76964;SDS011;65903;51.452;7.198;2024-03-25T00:21:27;13.43;;;4.38;;
76964;SDS011;65903;51.452;7.198;2024-03-25T00:22:28;17.13;;;4.80;;
76964;SDS011;65903;51.452;7.198;2024-03-25T00:23:28;11.57;;;4.22;;
76964;SDS011;65903;51.452;7.198;2024-03-25T00:24:29;15.77;;;5.40;;
76964;SDS011;65903;51.452;7.198;2024-03-25T00:25:30;21.83;;;5.68;;
76964;SDS011;65903;51.452;7.198;2024-03-25T00:26:30;19.30;;;5.68;;
76964;SDS011;65903;51.452;7.198;2024-03-25T00:27:31;18.08;;;4.50;;
76964;SDS011;65903;51.452;7.198;2024-03-25T00:28:31;9.55;;;3.97;;
76964;SDS011;65903;51.452;7.198;2024-03-25T00:29:32;17.00;;;5.10;;
76964;SDS011;65903;51.452;7.198;2024-03-25T00:30:33;17.75;;;6.22;;
76964;SDS011;65903;51.452;7.198;2024-03-25T00:31:34;17.10;;;5.68;;
76964;SDS011;65903;51.452;7.198;2024-03-25T00:32:35;19.42;;;6.10;;
76964;SDS011;65903;51.452;7.198;2024-03-25T00:33:35;27.50;;;8.27;;
76964;SDS011;65903;51.452;7.198;2024-03-25T00:34:36;26.38;;;7.93;;
76964;SDS011;65903;51.452;7.198;2024-03-25T00:35:37;24.60;;;8.38;;
76964;SDS011;65903;51.452;7.198;2024-03-25T00:36:37;20.83;;;7.80;;
76964;SDS011;65903;51.452;7.198;2024-03-25T00:37:38;19.88;;;9.05;;
76964;SDS011;65903;51.452;7.198;2024-03-25T00:38:38;23.40;;;9.15;;
76964;SDS011;65903;51.452;7.198;2024-03-25T00:39:39;24.05;;;9.40;;
76964;SDS011;65903;51.452;7.198;2024-03-25T00:40:39;19.75;;;9.23;;
76964;SDS011;65903;51.452;7.198;2024-03-25T00:41:40;14.63;;;6.70;;
76964;SDS011;65903;51.452;7.198;2024-03-25T00:42:40;27.02;;;9.32;;
76964;SDS011;65903;51.452;7.198;2024-03-25T00:43:40;12.73;;;6.75;;
76964;SDS011;65903;51.452;7.198;2024-03-25T00:44:41;17.90;;;7.07;;
76964;SDS011;65903;51.452;7.198;2024-03-25T00:45:41;24.95;;;9.23;;
76964;SDS011;65903;51.452;7.198;2024-03-25T00:46:42;27.20;;;9.57;;
76964;SDS011;65903;51.452;7.198;2024-03-25T00:47:42;30.42;;;9.75;;
76964;SDS011;65903;51.452;7.198;2024-03-25T00:48:43;26.23;;;11.00;;
76964;SDS011;65903;51.452;7.198;2024-03-25T00:49:43;29.25;;;10.38;;
76964;SDS011;65903;51.452;7.198;2024-03-25T00:50:43;22.58;;;9.60;;
76964;SDS011;65903;51.452;7.198;2024-03-25T00:51:44;22.63;;;9.38;;
76964;SDS011;65903;51.452;7.198;2024-03-25T00:52:45;17.15;;;9.18;;
76964;SDS011;65903;51.452;7.198;2024-03-25T00:53:45;29.27;;;10.23;;
76964;SDS011;65903;51.452;7.198;2024-03-25T00:54:46;34.78;;;10.80;;
76964;SDS011;65903;51.452;7.198;2024-03-25T00:55:47;26.08;;;10.38;;
76964;SDS011;65903;51.452;7.198;2024-03-25T00:56:47;29.55;;;10.57;;
76964;SDS011;65903;51.452;7.198;2024-03-25T00:57:47;25.48;;;9.48;;
76964;SDS011;65903;51.452;7.198;2024-03-25T00:58:48;27.38;;;10.23;;
76964;SDS011;65903;51.452;7.198;2024-03-25T00:59:48;25.40;;;9.70;;
76964;SDS011;65903;51.452;7.198;2024-03-25T01:00:49;30.52;;;9.80;;
76964;SDS011;65903;51.452;7.198;2024-03-25T01:01:50;18.60;;;9.38;;
76964;SDS011;65903;51.452;7.198;2024-03-25T01:02:51;23.98;;;9.18;;
76964;SDS011;65903;51.452;7.198;2024-03-25T01:03:51;28.08;;;9.95;;
76964;SDS011;65903;51.452;7.198;2024-03-25T01:04:52;22.75;;;9.80;;
76964;SDS011;65903;51.452;7.198;2024-03-25T01:05:52;26.48;;;9.48;;
76964;SDS011;65903;51.452;7.198;2024-03-25T01:06:53;25.48;;;9.65;;
76964;SDS011;65903;51.452;7.198;2024-03-25T01:07:54;25.80;;;9.65;;
76964;SDS011;65903;51.452;7.198;2024-03-25T01:08:54;18.20;;;8.63;;
76964;SDS011;65903;51.452;7.198;2024-03-25T01:09:55;27.63;;;10.60;;
76964;SDS011;65903;51.452;7.198;2024-03-25T01:10:55;26.52;;;11.15;;
76964;SDS011;65903;51.452;7.198;2024-03-25T01:11:55;31.40;;;11.68;;
76964;SDS011;65903;51.452;7.198;2024-03-25T01:12:56;33.17;;;12.80;;
76964;SDS011;65903;51.452;7.198;2024-03-25T01:13:57;32.38;;;11.88;;
76964;SDS011;65903;51.452;7.198;2024-03-25T01:14:58;27.30;;;10.13;;
76964;SDS011;65903;51.452;7.198;2024-03-25T01:15:59;29.10;;;11.30;;
76964;SDS011;65903;51.452;7.198;2024-03-25T01:17:00;29.13;;;10.52;;
76964;SDS011;65903;51.452;7.198;2024-03-25T01:18:00;23.23;;;11.00;;
76964;SDS011;65903;51.452;7.198;2024-03-25T01:19:01;21.88;;;11.88;;
76964;SDS011;65903;51.452;7.198;2024-03-25T01:20:01;33.20;;;12.68;;
76964;SDS011;65903;51.452;7.198;2024-03-25T01:21:02;27.45;;;11.80;;
76964;SDS011;65903;51.452;7.198;2024-03-25T01:22:04;34.65;;;12.20;;
76964;SDS011;65903;51.452;7.198;2024-03-25T01:23:05;27.83;;;12.32;;
76964;SDS011;65903;51.452;7.198;2024-03-25T01:24:06;33.65;;;13.05;;
76964;SDS011;65903;51.452;7.198;2024-03-25T01:25:06;25.67;;;11.55;;
76964;SDS011;65903;51.452;7.198;2024-03-25T01:26:07;28.73;;;10.95;;
76964;SDS011;65903;51.452;7.198;2024-03-25T01:27:08;27.80;;;12.57;;
76964;SDS011;65903;51.452;7.198;2024-03-25T01:28:08;38.55;;;13.30;;
76964;SDS011;65903;51.452;7.198;2024-03-25T01:29:09;31.35;;;11.30;;
76964;SDS011;65903;51.452;7.198;2024-03-25T01:30:10;25.45;;;10.38;;
76964;SDS011;65903;51.452;7.198;2024-03-25T01:31:10;32.50;;;12.30;;
76964;SDS011;65903;51.452;7.198;2024-03-25T01:32:11;26.05;;;11.15;;
76964;SDS011;65903;51.452;7.198;2024-03-25T01:33:12;22.85;;;9.38;;
76964;SDS011;65903;51.452;7.198;2024-03-25T01:34:12;23.58;;;10.68;;
76964;SDS011;65903;51.452;7.198;2024-03-25T01:35:16;29.50;;;9.95;;
76964;SDS011;65903;51.452;7.198;2024-03-25T01:36:17;35.05;;;11.15;;
76964;SDS011;65903;51.452;7.198;2024-03-25T01:37:18;29.38;;;10.40;;
76964;SDS011;65903;51.452;7.198;2024-03-25T01:38:19;33.08;;;11.23;;
76964;SDS011;65903;51.452;7.198;2024-03-25T01:39:19;31.10;;;10.45;;
76964;SDS011;65903;51.452;7.198;2024-03-25T01:40:19;28.35;;;9.40;;
76964;SDS011;65903;51.452;7.198;2024-03-25T01:41:20;26.60;;;9.15;;
76964;SDS011;65903;51.452;7.198;2024-03-25T01:43:23;22.55;;;8.25;;
76964;SDS011;65903;51.452;7.198;2024-03-25T01:44:24;26.90;;;8.82;;
76964;SDS011;65903;51.452;7.198;2024-03-25T01:45:25;25.80;;;8.23;;
76964;SDS011;65903;51.452;7.198;2024-03-25T01:46:26;20.85;;;8.48;;
76964;SDS011;65903;51.452;7.198;2024-03-25T01:47:26;27.10;;;8.32;;
76964;SDS011;65903;51.452;7.198;2024-03-25T01:48:27;23.92;;;7.95;;
76964;SDS011;65903;51.452;7.198;2024-03-25T01:49:28;22.65;;;7.47;;
76964;SDS011;65903;51.452;7.198;2024-03-25T01:50:29;19.08;;;6.70;;
76964;SDS011;65903;51.452;7.198;2024-03-25T01:51:31;16.60;;;6.45;;
76964;SDS011;65903;51.452;7.198;2024-03-25T01:52:32;19.00;;;6.35;;
76964;SDS011;65903;51.452;7.198;2024-03-25T01:53:34;22.63;;;6.32;;
76964;SDS011;65903;51.452;7.198;2024-03-25T01:54:35;14.93;;;6.50;;
76964;SDS011;65903;51.452;7.198;2024-03-25T01:55:35;16.95;;;6.25;;
76964;SDS011;65903;51.452;7.198;2024-03-25T01:56:37;20.48;;;6.28;;
76964;SDS011;65903;51.452;7.198;2024-03-25T01:57:38;22.05;;;6.75;;
76964;SDS011;65903;51.452;7.198;2024-03-25T01:58:39;18.13;;;5.65;;
76964;SDS011;65903;51.452;7.198;2024-03-25T01:59:40;18.52;;;5.80;;
76964;SDS011;65903;51.452;7.198;2024-03-25T02:00:42;16.05;;;5.65;;
76964;SDS011;65903;51.452;7.198;2024-03-25T02:01:43;19.55;;;7.32;;
76964;SDS011;65903;51.452;7.198;2024-03-25T02:02:44;22.65;;;6.07;;
76964;SDS011;65903;51.452;7.198;2024-03-25T02:03:46;14.40;;;5.22;;
76964;SDS011;65903;51.452;7.198;2024-03-25T02:04:47;15.82;;;5.38;;
76964;SDS011;65903;51.452;7.198;2024-03-25T02:05:52;17.23;;;5.95;;
76964;SDS011;65903;51.452;7.198;2024-03-25T02:06:55;14.02;;;6.47;;
76964;SDS011;65903;51.452;7.198;2024-03-25T02:07:58;20.67;;;5.03;;
76964;SDS011;65903;51.452;7.198;2024-03-25T02:09:00;16.50;;;5.05;;
76964;SDS011;65903;51.452;7.198;2024-03-25T02:10:03;15.32;;;4.85;;
76964;SDS011;65903;51.452;7.198;2024-03-25T02:11:04;18.48;;;5.18;;
76964;SDS011;65903;51.452;7.198;2024-03-25T02:12:04;21.10;;;4.55;;
76964;SDS011;65903;51.452;7.198;2024-03-25T02:13:05;18.27;;;4.70;;
76964;SDS011;65903;51.452;7.198;2024-03-25T02:14:05;10.35;;;4.45;;
76964;SDS011;65903;51.452;7.198;2024-03-25T02:15:06;15.18;;;4.25;;
76964;SDS011;65903;51.452;7.198;2024-03-25T02:16:07;15.90;;;5.22;;
76964;SDS011;65903;51.452;7.198;2024-03-25T02:17:08;16.67;;;4.80;;
76964;SDS011;65903;51.452;7.198;2024-03-25T02:18:09;13.27;;;4.13;;
76964;SDS011;65903;51.452;7.198;2024-03-25T02:19:09;13.68;;;4.72;;
76964;SDS011;65903;51.452;7.198;2024-03-25T02:20:11;16.63;;;4.18;;
76964;SDS011;65903;51.452;7.198;2024-03-25T02:21:14;13.52;;;4.53;;
76964;SDS011;65903;51.452;7.198;2024-03-25T02:22:15;14.25;;;3.85;;
76964;SDS011;65903;51.452;7.198;2024-03-25T02:23:15;13.48;;;4.57;;
76964;SDS011;65903;51.452;7.198;2024-03-25T02:24:16;13.50;;;4.50;;
76964;SDS011;65903;51.452;7.198;2024-03-25T02:25:20;10.85;;;3.58;;
76964;SDS011;65903;51.452;7.198;2024-03-25T02:26:21;11.10;;;4.82;;
76964;SDS011;65903;51.452;7.198;2024-03-25T02:27:24;15.60;;;4.90;;
76964;SDS011;65903;51.452;7.198;2024-03-25T02:28:24;14.05;;;4.82;;
76964;SDS011;65903;51.452;7.198;2024-03-25T02:29:34;20.38;;;3.72;;
76964;SDS011;65903;51.452;7.198;2024-03-25T02:30:34;16.77;;;3.80;;
76964;SDS011;65903;51.452;7.198;2024-03-25T02:31:36;9.40;;;3.10;;
76964;SDS011;65903;51.452;7.198;2024-03-25T02:32:37;11.77;;;4.05;;
76964;SDS011;65903;51.452;7.198;2024-03-25T02:33:37;6.35;;;2.95;;
76964;SDS011;65903;51.452;7.198;2024-03-25T02:34:43;8.68;;;3.63;;
76964;SDS011;65903;51.452;7.198;2024-03-25T02:35:44;11.88;;;4.00;;
76964;SDS011;65903;51.452;7.198;2024-03-25T02:36:45;11.52;;;3.97;;
76964;SDS011;65903;51.452;7.198;2024-03-25T02:37:45;13.90;;;4.20;;
76964;SDS011;65903;51.452;7.198;2024-03-25T02:38:46;12.38;;;4.40;;
76964;SDS011;65903;51.452;7.198;2024-03-25T02:39:46;12.93;;;3.58;;
76964;SDS011;65903;51.452;7.198;2024-03-25T02:40:47;9.68;;;4.15;;
76964;SDS011;65903;51.452;7.198;2024-03-25T02:41:48;15.27;;;4.07;;
76964;SDS011;65903;51.452;7.198;2024-03-25T02:42:48;20.17;;;3.55;;
76964;SDS011;65903;51.452;7.198;2024-03-25T02:43:49;9.10;;;3.28;;
76964;SDS011;65903;51.452;7.198;2024-03-25T02:44:50;13.52;;;3.63;;
76964;SDS011;65903;51.452;7.198;2024-03-25T02:45:50;13.80;;;3.83;;
76964;SDS011;65903;51.452;7.198;2024-03-25T02:46:51;13.55;;;4.88;;
76964;SDS011;65903;51.452;7.198;2024-03-25T02:47:52;11.32;;;3.95;;
76964;SDS011;65903;51.452;7.198;2024-03-25T02:48:53;14.35;;;4.13;;
76964;SDS011;65903;51.452;7.198;2024-03-25T02:49:53;14.00;;;3.67;;
76964;SDS011;65903;51.452;7.198;2024-03-25T02:50:53;10.82;;;3.25;;
76964;SDS011;65903;51.452;7.198;2024-03-25T02:51:54;18.33;;;4.35;;
76964;SDS011;65903;51.452;7.198;2024-03-25T02:52:54;14.38;;;4.50;;
76964;SDS011;65903;51.452;7.198;2024-03-25T02:53:56;16.00;;;4.65;;
76964;SDS011;65903;51.452;7.198;2024-03-25T02:54:56;13.27;;;4.25;;
76964;SDS011;65903;51.452;7.198;2024-03-25T02:55:57;12.48;;;3.67;;
76964;SDS011;65903;51.452;7.198;2024-03-25T02:56:58;20.42;;;5.25;;
76964;SDS011;65903;51.452;7.198;2024-03-25T02:57:59;20.20;;;4.50;;
76964;SDS011;65903;51.452;7.198;2024-03-25T02:59:00;8.65;;;4.07;;
76964;SDS011;65903;51.452;7.198;2024-03-25T03:00:00;16.92;;;4.47;;
76964;SDS011;65903;51.452;7.198;2024-03-25T03:01:01;15.38;;;5.13;;
76964;SDS011;65903;51.452;7.198;2024-03-25T03:02:02;13.73;;;4.10;;
76964;SDS011;65903;51.452;7.198;2024-03-25T03:03:03;14.05;;;4.13;;
76964;SDS011;65903;51.452;7.198;2024-03-25T03:04:03;17.23;;;3.45;;
76964;SDS011;65903;51.452;7.198;2024-03-25T03:05:04;19.05;;;5.15;;
76964;SDS011;65903;51.452;7.198;2024-03-25T03:06:04;13.32;;;4.35;;
76964;SDS011;65903;51.452;7.198;2024-03-25T03:07:04;16.55;;;5.57;;
76964;SDS011;65903;51.452;7.198;2024-03-25T03:08:05;11.20;;;3.92;;
76964;SDS011;65903;51.452;7.198;2024-03-25T03:09:06;16.08;;;4.63;;
76964;SDS011;65903;51.452;7.198;2024-03-25T03:10:07;14.93;;;4.47;;
76964;SDS011;65903;51.452;7.198;2024-03-25T03:11:08;19.42;;;5.15;;
76964;SDS011;65903;51.452;7.198;2024-03-25T03:12:08;14.23;;;4.20;;
76964;SDS011;65903;51.452;7.198;2024-03-25T03:13:09;14.75;;;5.40;;
76964;SDS011;65903;51.452;7.198;2024-03-25T03:14:11;21.65;;;5.10;;
76964;SDS011;65903;51.452;7.198;2024-03-25T03:15:11;18.00;;;5.55;;
76964;SDS011;65903;51.452;7.198;2024-03-25T03:16:12;13.85;;;5.93;;
76964;SDS011;65903;51.452;7.198;2024-03-25T03:17:12;16.55;;;5.15;;
76964;SDS011;65903;51.452;7.198;2024-03-25T03:18:15;22.02;;;7.07;;
76964;SDS011;65903;51.452;7.198;2024-03-25T03:19:16;18.92;;;6.28;;
76964;SDS011;65903;51.452;7.198;2024-03-25T03:20:16;16.70;;;6.45;;
76964;SDS011;65903;51.452;7.198;2024-03-25T03:21:17;15.38;;;6.13;;
76964;SDS011;65903;51.452;7.198;2024-03-25T03:22:17;17.42;;;6.28;;
76964;SDS011;65903;51.452;7.198;2024-03-25T03:23:17;21.70;;;6.88;;
76964;SDS011;65903;51.452;7.198;2024-03-25T03:24:18;14.98;;;5.45;;
76964;SDS011;65903;51.452;7.198;2024-03-25T03:25:18;16.25;;;5.40;;
76964;SDS011;65903;51.452;7.198;2024-03-25T03:26:18;18.98;;;7.00;;
76964;SDS011;65903;51.452;7.198;2024-03-25T03:27:19;18.33;;;6.07;;
76964;SDS011;65903;51.452;7.198;2024-03-25T03:28:20;18.00;;;5.22;;
76964;SDS011;65903;51.452;7.198;2024-03-25T03:29:20;16.65;;;6.13;;
76964;SDS011;65903;51.452;7.198;2024-03-25T03:30:21;13.18;;;6.10;;
76964;SDS011;65903;51.452;7.198;2024-03-25T03:31:22;21.90;;;5.47;;
76964;SDS011;65903;51.452;7.198;2024-03-25T03:32:22;19.48;;;6.45;;
76964;SDS011;65903;51.452;7.198;2024-03-25T03:33:24;19.63;;;5.65;;
76964;SDS011;65903;51.452;7.198;2024-03-25T03:34:24;21.67;;;7.20;;
76964;SDS011;65903;51.452;7.198;2024-03-25T03:35:25;15.38;;;6.57;;
76964;SDS011;65903;51.452;7.198;2024-03-25T03:36:25;17.92;;;6.82;;
76964;SDS011;65903;51.452;7.198;2024-03-25T03:37:26;17.83;;;6.38;;
76964;SDS011;65903;51.452;7.198;2024-03-25T03:38:27;17.45;;;5.63;;
76964;SDS011;65903;51.452;7.198;2024-03-25T03:39:27;18.50;;;6.13;;
76964;SDS011;65903;51.452;7.198;2024-03-25T03:40:28;16.30;;;5.93;;
76964;SDS011;65903;51.452;7.198;2024-03-25T03:41:28;14.48;;;5.97;;
76964;SDS011;65903;51.452;7.198;2024-03-25T03:42:29;14.52;;;6.35;;
76964;SDS011;65903;51.452;7.198;2024-03-25T03:43:29;14.25;;;5.15;;
76964;SDS011;65903;51.452;7.198;2024-03-25T03:44:29;15.38;;;5.68;;
76964;SDS011;65903;51.452;7.198;2024-03-25T03:45:32;11.85;;;5.93;;
76964;SDS011;65903;51.452;7.198;2024-03-25T03:47:34;18.70;;;5.38;;
76964;SDS011;65903;51.452;7.198;2024-03-25T03:48:34;18.48;;;6.57;;
76964;SDS011;65903;51.452;7.198;2024-03-25T03:49:36;19.20;;;6.50;;
76964;SDS011;65903;51.452;7.198;2024-03-25T03:50:36;16.77;;;6.20;;
76964;SDS011;65903;51.452;7.198;2024-03-25T03:51:36;15.80;;;5.63;;
76964;SDS011;65903;51.452;7.198;2024-03-25T03:52:37;14.57;;;5.47;;
76964;SDS011;65903;51.452;7.198;2024-03-25T03:53:37;15.25;;;5.45;;
76964;SDS011;65903;51.452;7.198;2024-03-25T03:54:38;14.88;;;5.57;;
76964;SDS011;65903;51.452;7.198;2024-03-25T03:55:39;16.70;;;5.90;;
76964;SDS011;65903;51.452;7.198;2024-03-25T03:56:40;11.98;;;5.20;;
76964;SDS011;65903;51.452;7.198;2024-03-25T03:57:41;18.05;;;7.50;;
76964;SDS011;65903;51.452;7.198;2024-03-25T03:58:42;16.40;;;5.65;;
76964;SDS011;65903;51.452;7.198;2024-03-25T03:59:43;15.05;;;5.88;;
76964;SDS011;65903;51.452;7.198;2024-03-25T04:00:43;20.17;;;5.90;;
76964;SDS011;65903;51.452;7.198;2024-03-25T04:01:44;19.42;;;6.35;;
76964;SDS011;65903;51.452;7.198;2024-03-25T04:02:44;14.73;;;5.40;;
76964;SDS011;65903;51.452;7.198;2024-03-25T04:03:45;17.60;;;4.90;;
76964;SDS011;65903;51.452;7.198;2024-03-25T04:04:46;19.40;;;5.78;;
76964;SDS011;65903;51.452;7.198;2024-03-25T04:05:46;18.60;;;6.32;;
76964;SDS011;65903;51.452;7.198;2024-03-25T04:06:46;19.88;;;6.93;;
76964;SDS011;65903;51.452;7.198;2024-03-25T04:07:47;14.07;;;5.88;;
76964;SDS011;65903;51.452;7.198;2024-03-25T04:08:47;17.27;;;5.75;;
76964;SDS011;65903;51.452;7.198;2024-03-25T04:09:47;18.55;;;6.57;;
76964;SDS011;65903;51.452;7.198;2024-03-25T04:10:48;19.30;;;5.85;;
76964;SDS011;65903;51.452;7.198;2024-03-25T04:11:49;15.40;;;5.32;;
76964;SDS011;65903;51.452;7.198;2024-03-25T04:12:50;16.48;;;5.50;;
76964;SDS011;65903;51.452;7.198;2024-03-25T04:13:51;21.38;;;6.57;;
76964;SDS011;65903;51.452;7.198;2024-03-25T04:14:52;16.88;;;7.05;;
76964;SDS011;65903;51.452;7.198;2024-03-25T04:15:59;19.20;;;6.20;;
76964;SDS011;65903;51.452;7.198;2024-03-25T04:17:03;16.80;;;5.55;;
76964;SDS011;65903;51.452;7.198;2024-03-25T04:18:03;13.50;;;5.72;;
76964;SDS011;65903;51.452;7.198;2024-03-25T04:19:04;17.60;;;6.13;;
76964;SDS011;65903;51.452;7.198;2024-03-25T04:20:04;17.67;;;6.07;;
76964;SDS011;65903;51.452;7.198;2024-03-25T04:21:13;16.35;;;6.15;;
76964;SDS011;65903;51.452;7.198;2024-03-25T04:22:14;18.52;;;5.70;;
76964;SDS011;65903;51.452;7.198;2024-03-25T04:23:15;16.00;;;5.82;;
76964;SDS011;65903;51.452;7.198;2024-03-25T04:24:15;17.60;;;6.03;;
76964;SDS011;65903;51.452;7.198;2024-03-25T04:25:16;18.85;;;6.15;;
76964;SDS011;65903;51.452;7.198;2024-03-25T04:26:17;14.70;;;5.55;;
76964;SDS011;65903;51.452;7.198;2024-03-25T04:27:18;20.58;;;6.68;;
76964;SDS011;65903;51.452;7.198;2024-03-25T04:29:22;20.95;;;6.07;;
76964;SDS011;65903;51.452;7.198;2024-03-25T04:30:22;14.43;;;5.30;;
76964;SDS011;65903;51.452;7.198;2024-03-25T04:31:23;15.68;;;6.05;;
76964;SDS011;65903;51.452;7.198;2024-03-25T04:32:23;19.08;;;6.55;;
76964;SDS011;65903;51.452;7.198;2024-03-25T04:33:24;16.00;;;6.70;;
76964;SDS011;65903;51.452;7.198;2024-03-25T04:34:24;22.42;;;6.43;;
76964;SDS011;65903;51.452;7.198;2024-03-25T04:35:24;15.45;;;5.50;;
76964;SDS011;65903;51.452;7.198;2024-03-25T04:36:25;18.58;;;6.28;;
76964;SDS011;65903;51.452;7.198;2024-03-25T04:37:26;15.05;;;5.85;;
76964;SDS011;65903;51.452;7.198;2024-03-25T04:38:28;17.63;;;6.32;;
76964;SDS011;65903;51.452;7.198;2024-03-25T04:39:28;20.70;;;6.70;;
76964;SDS011;65903;51.452;7.198;2024-03-25T04:40:29;15.38;;;5.80;;
76964;SDS011;65903;51.452;7.198;2024-03-25T04:41:31;19.27;;;6.22;;
76964;SDS011;65903;51.452;7.198;2024-03-25T04:42:31;17.48;;;6.43;;
76964;SDS011;65903;51.452;7.198;2024-03-25T04:43:31;18.95;;;6.63;;
76964;SDS011;65903;51.452;7.198;2024-03-25T04:44:31;16.92;;;6.40;;
76964;SDS011;65903;51.452;7.198;2024-03-25T04:45:32;19.42;;;5.90;;
76964;SDS011;65903;51.452;7.198;2024-03-25T04:46:32;16.48;;;6.22;;
76964;SDS011;65903;51.452;7.198;2024-03-25T04:47:33;17.55;;;6.18;;
76964;SDS011;65903;51.452;7.198;2024-03-25T04:48:34;17.60;;;6.00;;
76964;SDS011;65903;51.452;7.198;2024-03-25T04:49:34;16.85;;;6.93;;
76964;SDS011;65903;51.452;7.198;2024-03-25T04:50:35;14.98;;;5.45;;
76964;SDS011;65903;51.452;7.198;2024-03-25T04:51:36;19.88;;;6.65;;
76964;SDS011;65903;51.452;7.198;2024-03-25T04:52:36;21.88;;;6.55;;
76964;SDS011;65903;51.452;7.198;2024-03-25T04:53:37;13.35;;;6.68;;
76964;SDS011;65903;51.452;7.198;2024-03-25T04:54:38;19.73;;;6.55;;
76964;SDS011;65903;51.452;7.198;2024-03-25T04:55:38;20.27;;;6.00;;
76964;SDS011;65903;51.452;7.198;2024-03-25T04:56:39;21.63;;;6.38;;
76964;SDS011;65903;51.452;7.198;2024-03-25T04:57:41;16.83;;;6.35;;
76964;SDS011;65903;51.452;7.198;2024-03-25T04:58:42;19.00;;;6.75;;
76964;SDS011;65903;51.452;7.198;2024-03-25T04:59:43;18.42;;;6.28;;
76964;SDS011;65903;51.452;7.198;2024-03-25T05:00:43;20.15;;;6.13;;
76964;SDS011;65903;51.452;7.198;2024-03-25T05:01:43;17.48;;;6.32;;
76964;SDS011;65903;51.452;7.198;2024-03-25T05:02:43;18.40;;;7.07;;
76964;SDS011;65903;51.452;7.198;2024-03-25T05:03:44;24.75;;;6.90;;
76964;SDS011;65903;51.452;7.198;2024-03-25T05:04:45;29.80;;;7.40;;
76964;SDS011;65903;51.452;7.198;2024-03-25T05:05:46;22.85;;;7.57;;
76964;SDS011;65903;51.452;7.198;2024-03-25T05:06:46;18.33;;;6.15;;
76964;SDS011;65903;51.452;7.198;2024-03-25T05:07:47;19.65;;;6.50;;
76964;SDS011;65903;51.452;7.198;2024-03-25T05:08:48;17.52;;;6.65;;
76964;SDS011;65903;51.452;7.198;2024-03-25T05:09:48;15.68;;;6.20;;
76964;SDS011;65903;51.452;7.198;2024-03-25T05:10:49;19.88;;;6.13;;
76964;SDS011;65903;51.452;7.198;2024-03-25T05:11:49;17.70;;;5.55;;
76964;SDS011;65903;51.452;7.198;2024-03-25T05:12:50;12.95;;;6.00;;
76964;SDS011;65903;51.452;7.198;2024-03-25T05:13:50;17.60;;;5.88;;
76964;SDS011;65903;51.452;7.198;2024-03-25T05:14:51;19.63;;;6.63;;
76964;SDS011;65903;51.452;7.198;2024-03-25T05:15:52;16.45;;;6.05;;
76964;SDS011;65903;51.452;7.198;2024-03-25T05:16:53;22.55;;;6.93;;
76964;SDS011;65903;51.452;7.198;2024-03-25T05:17:54;15.95;;;6.60;;
76964;SDS011;65903;51.452;7.198;2024-03-25T05:18:55;15.75;;;6.60;;
76964;SDS011;65903;51.452;7.198;2024-03-25T05:19:55;17.60;;;6.35;;
76964;SDS011;65903;51.452;7.198;2024-03-25T05:20:56;17.77;;;6.13;;
76964;SDS011;65903;51.452;7.198;2024-03-25T05:21:57;20.58;;;5.90;;
76964;SDS011;65903;51.452;7.198;2024-03-25T05:22:57;19.25;;;6.68;;
76964;SDS011;65903;51.452;7.198;2024-03-25T05:23:58;17.27;;;6.70;;
76964;SDS011;65903;51.452;7.198;2024-03-25T05:24:58;18.50;;;5.90;;
76964;SDS011;65903;51.452;7.198;2024-03-25T05:25:58;18.00;;;6.50;;
76964;SDS011;65903;51.452;7.198;2024-03-25T05:26:59;16.25;;;6.15;;
76964;SDS011;65903;51.452;7.198;2024-03-25T05:27:59;24.08;;;6.70;;
76964;SDS011;65903;51.452;7.198;2024-03-25T05:29:00;16.42;;;6.30;;
76964;SDS011;65903;51.452;7.198;2024-03-25T05:30:01;14.13;;;6.07;;
76964;SDS011;65903;51.452;7.198;2024-03-25T05:31:06;19.85;;;7.50;;
76964;SDS011;65903;51.452;7.198;2024-03-25T05:32:08;22.02;;;6.72;;
76964;SDS011;65903;51.452;7.198;2024-03-25T05:33:08;18.10;;;6.38;;
76964;SDS011;65903;51.452;7.198;2024-03-25T05:34:09;18.90;;;6.43;;
76964;SDS011;65903;51.452;7.198;2024-03-25T05:35:10;14.00;;;6.35;;
76964;SDS011;65903;51.452;7.198;2024-03-25T05:36:10;21.48;;;6.80;;
76964;SDS011;65903;51.452;7.198;2024-03-25T05:37:12;19.90;;;7.07;;
76964;SDS011;65903;51.452;7.198;2024-03-25T05:38:12;18.92;;;7.20;;
76964;SDS011;65903;51.452;7.198;2024-03-25T05:39:13;22.80;;;6.88;;
76964;SDS011;65903;51.452;7.198;2024-03-25T05:40:13;20.95;;;6.82;;
76964;SDS011;65903;51.452;7.198;2024-03-25T05:41:15;17.75;;;6.60;;
76964;SDS011;65903;51.452;7.198;2024-03-25T05:42:15;15.52;;;6.20;;
76964;SDS011;65903;51.452;7.198;2024-03-25T05:43:16;21.83;;;6.35;;
76964;SDS011;65903;51.452;7.198;2024-03-25T05:44:16;19.85;;;7.32;;
76964;SDS011;65903;51.452;7.198;2024-03-25T05:45:17;22.65;;;7.30;;
76964;SDS011;65903;51.452;7.198;2024-03-25T05:46:18;24.35;;;7.65;;
76964;SDS011;65903;51.452;7.198;2024-03-25T05:47:19;22.65;;;7.57;;
76964;SDS011;65903;51.452;7.198;2024-03-25T05:48:20;20.58;;;7.18;;
76964;SDS011;65903;51.452;7.198;2024-03-25T05:49:21;16.25;;;6.90;;
76964;SDS011;65903;51.452;7.198;2024-03-25T05:50:22;17.83;;;6.60;;
76964;SDS011;65903;51.452;7.198;2024-03-25T05:51:22;22.10;;;7.32;;
76964;SDS011;65903;51.452;7.198;2024-03-25T05:52:23;19.33;;;7.05;;
76964;SDS011;65903;51.452;7.198;2024-03-25T05:53:23;19.38;;;6.72;;
76964;SDS011;65903;51.452;7.198;2024-03-25T05:54:24;23.02;;;6.63;;
76964;SDS011;65903;51.452;7.198;2024-03-25T05:55:24;24.02;;;6.97;;
76964;SDS011;65903;51.452;7.198;2024-03-25T05:56:25;18.35;;;6.18;;
76964;SDS011;65903;51.452;7.198;2024-03-25T05:57:30;16.02;;;6.80;;
76964;SDS011;65903;51.452;7.198;2024-03-25T05:58:31;15.90;;;6.63;;
76964;SDS011;65903;51.452;7.198;2024-03-25T05:59:32;22.58;;;6.70;;
76964;SDS011;65903;51.452;7.198;2024-03-25T06:00:33;17.65;;;6.97;;
76964;SDS011;65903;51.452;7.198;2024-03-25T06:01:33;19.30;;;6.47;;
76964;SDS011;65903;51.452;7.198;2024-03-25T06:02:37;15.55;;;6.13;;
76964;SDS011;65903;51.452;7.198;2024-03-25T06:03:37;19.63;;;6.03;;
76964;SDS011;65903;51.452;7.198;2024-03-25T06:04:37;23.10;;;7.63;;